createdAt,value
2022-08-26T00:02:07.200Z,65.91
2022-08-26T00:04:35.524Z,65.51
2022-08-26T00:07:03.784Z,65.48
2022-08-26T00:09:37.340Z,66.52
2022-08-26T00:12:12.412Z,66.52
2022-08-26T00:14:41.959Z,67.01
2022-08-26T00:17:10.400Z,67.38
2022-08-26T00:19:38.439Z,67.18
2022-08-26T00:22:06.587Z,67.10
2022-08-26T00:24:34.736Z,66.73
2022-08-26T00:27:02.687Z,66.41
2022-08-26T00:29:35.475Z,66.02
2022-08-26T00:32:06.335Z,65.85
2022-08-26T00:34:34.495Z,65.75
2022-08-26T00:37:02.739Z,66.30
2022-08-26T00:39:31.334Z,66.61
2022-08-26T00:41:59.155Z,66.83
2022-08-26T00:44:27.218Z,66.22
2022-08-26T00:47:01.084Z,66.84
2022-08-26T00:49:35.905Z,68.53
2022-08-26T00:52:09.852Z,68.20
2022-08-26T00:54:46.941Z,67.98
2022-08-26T00:57:17.129Z,68.27
2022-08-26T00:59:46.714Z,69.37
2022-08-26T01:02:20.138Z,69.63
2022-08-26T01:04:50.093Z,69.29
2022-08-26T01:07:23.518Z,69.03
2022-08-26T01:09:51.617Z,68.34
2022-08-26T01:12:22.152Z,67.82
2022-08-26T01:14:50.732Z,67.90
2022-08-26T01:17:20.318Z,69.11
2022-08-26T01:19:50.647Z,69.27
2022-08-26T01:22:21.466Z,68.78
2022-08-26T01:24:56.105Z,68.37
2022-08-26T01:27:24.363Z,67.78
2022-08-26T01:29:53.112Z,67.52
2022-08-26T01:32:23.636Z,68.28
2022-08-26T01:34:52.801Z,68.42
2022-08-26T01:37:24.090Z,68.36
2022-08-26T01:39:54.199Z,67.79
2022-08-26T01:42:25.009Z,67.46
2022-08-26T01:44:55.401Z,68.35
2022-08-26T01:47:25.754Z,69.19
2022-08-26T01:49:56.192Z,68.86
2022-08-26T01:52:28.119Z,69.15
2022-08-26T01:54:57.488Z,68.95
2022-08-26T01:57:27.355Z,68.80
2022-08-26T01:59:56.199Z,68.02
2022-08-26T02:02:24.569Z,67.58
2022-08-26T02:04:56.096Z,67.57
2022-08-26T02:07:26.534Z,68.17
2022-08-26T02:09:55.131Z,69.22
2022-08-26T02:12:23.479Z,69.38
2022-08-26T02:14:55.691Z,69.98
2022-08-26T02:17:27.464Z,69.46
2022-08-26T02:19:55.884Z,69.35
2022-08-26T02:22:25.063Z,69.24
2022-08-26T02:24:56.127Z,69.49
2022-08-26T02:27:28.061Z,69.09
2022-08-26T02:30:01.105Z,68.63
2022-08-26T02:32:29.392Z,68.18
2022-08-26T02:34:57.499Z,67.57
2022-08-26T02:37:29.964Z,68.16
2022-08-26T02:39:57.971Z,68.39
2022-08-26T02:42:26.422Z,68.15
2022-08-26T02:44:55.212Z,68.21
2022-08-26T02:47:25.359Z,69.16
2022-08-26T02:49:56.923Z,68.65
2022-08-26T02:52:25.586Z,68.23
2022-08-26T02:54:53.675Z,68.54
2022-08-26T02:57:22.188Z,68.70
2022-08-26T02:59:50.205Z,69.42
2022-08-26T03:02:18.148Z,70.43
2022-08-26T03:04:57.513Z,70.47
2022-08-26T03:07:30.478Z,69.67
2022-08-26T03:09:58.547Z,69.16
2022-08-26T03:12:27.122Z,68.59
2022-08-26T03:14:55.155Z,68.25
2022-08-26T03:17:23.069Z,68.04
2022-08-26T03:19:57.032Z,68.37
2022-08-26T03:22:25.582Z,68.50
2022-08-26T03:24:55.071Z,68.55
2022-08-26T03:27:22.836Z,68.55
2022-08-26T03:30:08.184Z,69.28
2022-08-26T03:32:39.883Z,69.05
2022-08-26T03:35:11.278Z,69.26
2022-08-26T03:37:40.104Z,69.84
2022-08-26T03:40:10.549Z,69.36
2022-08-26T03:42:39.516Z,69.11
2022-08-26T03:45:10.790Z,69.07
2022-08-26T03:47:39.987Z,69.02
2022-08-26T03:50:12.316Z,68.71
2022-08-26T03:52:43.659Z,68.85
2022-08-26T03:55:14.375Z,68.68
2022-08-26T03:57:42.632Z,68.45
2022-08-26T04:00:14.707Z,68.87
2022-08-26T04:02:48.955Z,68.88
2022-08-26T04:05:20.497Z,68.78
2022-08-26T04:07:48.930Z,68.48
2022-08-26T04:10:22.237Z,68.41
2022-08-26T04:12:58.788Z,67.92
2022-08-26T04:15:28.398Z,68.02
2022-08-26T04:17:57.309Z,68.35
2022-08-26T04:20:27.501Z,68.48
2022-08-26T04:22:56.340Z,68.29
2022-08-26T04:25:25.396Z,68.54
2022-08-26T04:27:53.945Z,68.35
2022-08-26T04:30:22.488Z,68.27
2022-08-26T04:32:50.662Z,68.53
2022-08-26T04:35:21.771Z,68.52
2022-08-26T04:37:56.446Z,68.27
2022-08-26T04:40:27.584Z,68.13
2022-08-26T04:42:55.979Z,68.32
2022-08-26T04:45:24.748Z,68.79
2022-08-26T04:47:57.042Z,68.72
2022-08-26T04:50:26.665Z,68.64
2022-08-26T04:52:56.803Z,68.76
2022-08-26T04:55:38.554Z,68.53
2022-08-26T04:58:10.310Z,68.71
2022-08-26T05:00:39.043Z,68.88
2022-08-26T05:03:07.828Z,68.99
2022-08-26T05:05:40.621Z,69.04
2022-08-26T05:08:11.227Z,68.44
2022-08-26T05:10:43.569Z,68.30
2022-08-26T05:13:15.586Z,67.90
2022-08-26T05:15:44.640Z,67.06
2022-08-26T05:18:14.050Z,67.13
2022-08-26T05:20:43.248Z,67.16
2022-08-26T05:23:13.185Z,66.09
2022-08-26T05:25:42.198Z,66.21
2022-08-26T05:28:10.373Z,65.46
2022-08-26T05:30:40.283Z,64.71
2022-08-26T05:33:10.068Z,63.86
2022-08-26T05:35:38.567Z,63.47
2022-08-26T05:38:12.381Z,63.53
2022-08-26T05:40:44.901Z,63.30
2022-08-26T05:43:14.503Z,63.48
2022-08-26T05:45:45.885Z,62.86
2022-08-26T05:48:15.421Z,62.52
2022-08-26T05:50:45.898Z,61.06
2022-08-26T05:53:16.346Z,60.71
2022-08-26T05:55:49.532Z,59.12
2022-08-26T05:58:20.327Z,58.86
2022-08-26T06:00:57.104Z,59.24
2022-08-26T06:03:25.410Z,59.54
2022-08-26T06:05:53.598Z,59.95
2022-08-26T06:08:21.833Z,59.78
2022-08-26T06:10:54.233Z,60.62
2022-08-26T06:13:24.002Z,60.29
2022-08-26T06:15:52.988Z,59.66
2022-08-26T06:18:23.164Z,59.31
2022-08-26T06:20:57.339Z,59.30
2022-08-26T06:23:44.859Z,58.80
2022-08-26T06:26:20.995Z,57.39
2022-08-26T06:28:49.235Z,56.46
2022-08-26T06:31:17.446Z,55.86
2022-08-26T06:33:47.515Z,56.55
2022-08-26T06:36:21.287Z,56.13
2022-08-26T06:38:49.896Z,54.76
2022-08-26T06:41:21.149Z,54.99
2022-08-26T06:43:49.287Z,54.66
2022-08-26T06:46:22.290Z,54.09
2022-08-26T06:48:50.449Z,52.61
2022-08-26T06:51:20.424Z,52.19
2022-08-26T06:53:53.570Z,52.74
2022-08-26T06:56:24.680Z,51.32
2022-08-26T06:58:53.496Z,51.91
2022-08-26T07:01:25.732Z,51.83
2022-08-26T07:03:57.476Z,51.03
2022-08-26T07:06:26.631Z,50.93
2022-08-26T07:08:56.956Z,51.46
2022-08-26T07:11:26.164Z,51.64
2022-08-26T07:13:56.194Z,50.24
2022-08-26T07:16:24.429Z,47.80
2022-08-26T07:18:53.835Z,45.04
2022-08-26T07:21:23.154Z,44.92
2022-08-26T07:23:52.055Z,41.79
2022-08-26T07:26:21.927Z,40.84
2022-08-26T07:28:55.989Z,40.62
2022-08-26T07:31:24.872Z,41.64
2022-08-26T07:33:53.051Z,42.41
2022-08-26T07:36:22.553Z,40.42
2022-08-26T07:38:50.601Z,40.67
2022-08-26T07:41:20.450Z,39.56
2022-08-26T07:43:48.629Z,39.15
2022-08-26T07:46:20.854Z,38.41
2022-08-26T07:48:55.338Z,38.58
2022-08-26T07:51:24.206Z,38.79
2022-08-26T07:53:53.209Z,39.34
2022-08-26T07:56:22.074Z,38.83
2022-08-26T07:58:51.504Z,39.24
2022-08-26T08:01:21.521Z,38.15
2022-08-26T08:03:51.643Z,39.17
2022-08-26T08:06:19.937Z,39.32
2022-08-26T08:08:47.680Z,39.04
2022-08-26T08:11:20.639Z,38.40
2022-08-26T08:13:48.864Z,38.31
2022-08-26T08:16:18.113Z,38.03
2022-08-26T08:19:40.770Z,38.05
2022-08-26T08:23:06.596Z,38.13
2022-08-26T08:36:20.439Z,36.32
2022-08-26T08:38:49.259Z,36.75
2022-08-26T08:41:29.403Z,35.65
2022-08-26T08:43:58.155Z,36.02
2022-08-26T08:46:26.558Z,35.65
2022-08-26T08:48:59.731Z,36.77
2022-08-26T08:52:16.671Z,36.51
2022-08-26T08:58:56.914Z,36.13
2022-08-26T09:01:30.033Z,35.10
2022-08-26T09:04:20.019Z,36.13
2022-08-26T09:06:49.980Z,36.52
2022-08-26T09:09:23.133Z,36.58
2022-08-26T09:11:54.620Z,35.22
2022-08-26T09:14:24.026Z,35.27
2022-08-26T09:17:05.366Z,35.04
2022-08-26T09:19:37.832Z,34.74
2022-08-26T09:22:09.287Z,34.51
2022-08-26T09:24:42.170Z,35.07
2022-08-26T09:27:37.893Z,33.95
2022-08-26T09:30:11.520Z,33.70
2022-08-26T09:32:40.497Z,33.04
2022-08-26T09:35:10.978Z,33.33
2022-08-26T09:37:42.384Z,33.77
2022-08-26T09:40:30.406Z,32.91
2022-08-26T09:43:12.152Z,32.39
2022-08-26T09:45:50.091Z,33.47
2022-08-26T09:48:28.576Z,33.84
2022-08-26T09:50:59.404Z,33.79
2022-08-26T09:53:30.886Z,33.52
2022-08-26T09:56:16.637Z,32.23
2022-08-26T09:58:47.316Z,31.35
2022-08-26T10:01:30.068Z,30.93
2022-08-26T10:04:06.204Z,31.17
2022-08-26T10:06:38.241Z,31.06
2022-08-26T10:09:09.805Z,31.09
2022-08-26T10:11:41.426Z,30.69
2022-08-26T10:14:14.355Z,31.48
2022-08-26T10:16:48.910Z,30.54
2022-08-26T10:19:21.563Z,31.30
2022-08-26T10:21:54.069Z,31.13
2022-08-26T10:24:24.657Z,30.15
2022-08-26T10:27:00.646Z,31.39
2022-08-26T10:29:34.312Z,29.68
2022-08-26T10:32:08.507Z,29.68
2022-08-26T10:34:42.627Z,29.72
2022-08-26T10:37:15.994Z,30.29
2022-08-26T10:39:56.997Z,31.73
2022-08-26T10:42:30.088Z,31.19
2022-08-26T10:45:00.243Z,30.71
2022-08-26T10:47:36.593Z,29.79
2022-08-26T10:50:06.664Z,29.89
2022-08-26T10:52:48.749Z,30.54
2022-08-26T10:55:21.695Z,29.80
2022-08-26T10:57:57.059Z,29.80
2022-08-26T11:00:47.320Z,29.50
2022-08-26T11:03:30.566Z,29.76
2022-08-26T11:06:22.805Z,29.40
2022-08-26T11:08:52.737Z,29.80
2022-08-26T11:11:49.333Z,30.30
2022-08-26T11:14:46.190Z,29.61
2022-08-26T11:17:57.075Z,28.94
2022-08-26T11:20:36.521Z,29.21
2022-08-26T11:23:40.488Z,28.73
2022-08-26T11:26:35.540Z,28.63
2022-08-26T11:29:12.008Z,28.34
2022-08-26T11:31:57.162Z,27.67
2022-08-26T11:34:56.244Z,26.90
2022-08-26T11:37:32.388Z,27.04
2022-08-26T11:40:02.864Z,26.61
2022-08-26T11:42:38.038Z,26.30
2022-08-26T11:45:18.511Z,25.84
2022-08-26T11:47:46.872Z,26.02
2022-08-26T11:50:20.334Z,26.83
2022-08-26T11:52:56.834Z,26.78
2022-08-26T11:55:25.162Z,26.58
2022-08-26T11:57:57.342Z,26.83
2022-08-26T12:00:27.689Z,26.32
2022-08-26T12:03:08.520Z,26.20
2022-08-26T12:05:43.413Z,27.56
2022-08-26T12:08:14.063Z,26.01
2022-08-26T12:10:42.133Z,25.65
2022-08-26T12:13:21.836Z,25.32
2022-08-26T12:15:55.646Z,24.77
2022-08-26T12:18:28.728Z,24.75
2022-08-26T12:21:02.474Z,25.73
2022-08-26T12:23:43.345Z,25.79
2022-08-26T12:26:12.323Z,25.80
2022-08-26T12:28:45.703Z,25.36
2022-08-26T12:31:22.669Z,25.95
2022-08-26T12:33:50.741Z,26.00
2022-08-26T12:36:24.645Z,25.07
2022-08-26T12:38:55.418Z,24.79
2022-08-26T12:41:53.758Z,25.01
2022-08-26T12:44:35.638Z,25.48
2022-08-26T12:47:08.232Z,25.27
2022-08-26T12:49:37.063Z,25.02
2022-08-26T12:52:08.009Z,24.89
2022-08-26T12:54:56.711Z,25.12
2022-08-26T12:57:29.071Z,24.39
2022-08-26T13:00:28.407Z,25.01
2022-08-26T13:02:57.389Z,24.04
2022-08-26T13:05:31.988Z,24.57
2022-08-26T13:08:27.021Z,24.24
2022-08-26T13:11:04.944Z,25.01
2022-08-26T13:13:32.763Z,24.76
2022-08-26T13:16:01.085Z,24.24
2022-08-26T13:18:29.462Z,24.33
2022-08-26T13:20:57.602Z,23.72
2022-08-26T13:23:26.849Z,24.15
2022-08-26T13:25:54.982Z,24.08
2022-08-26T13:28:22.827Z,24.27
2022-08-26T13:30:50.685Z,24.00
2022-08-26T13:33:18.807Z,24.23
2022-08-26T13:35:48.911Z,23.42
2022-08-26T13:38:32.946Z,23.86
2022-08-26T13:41:03.835Z,24.38
2022-08-26T13:43:32.007Z,25.18
2022-08-26T13:46:01.049Z,24.44
2022-08-26T13:48:29.187Z,25.36
2022-08-26T13:50:57.216Z,25.35
2022-08-26T13:53:25.249Z,25.36
2022-08-26T13:55:53.208Z,26.11
2022-08-26T13:58:22.638Z,27.05
2022-08-26T14:00:53.597Z,27.53
2022-08-26T14:03:21.840Z,27.38
2022-08-26T14:05:49.672Z,28.10
2022-08-26T14:08:18.039Z,28.67
2022-08-26T14:10:46.107Z,27.04
2022-08-26T14:13:15.005Z,27.61
2022-08-26T14:15:44.384Z,27.88
2022-08-26T14:18:16.911Z,27.31
2022-08-26T14:20:49.457Z,26.92
2022-08-26T14:23:17.904Z,26.75
2022-08-26T14:25:45.958Z,27.14
2022-08-26T14:28:13.916Z,26.47
2022-08-26T14:30:44.476Z,26.01
2022-08-26T14:33:13.654Z,25.72
2022-08-26T14:35:47.177Z,25.41
2022-08-26T14:38:16.767Z,24.79
2022-08-26T14:40:45.625Z,25.57
2022-08-26T14:43:15.410Z,25.50
2022-08-26T14:45:45.799Z,25.75
2022-08-26T14:48:13.739Z,25.50
2022-08-26T14:50:41.492Z,25.96
2022-08-26T14:53:27.008Z,26.04
2022-08-26T14:55:55.058Z,25.94
2022-08-26T14:58:23.089Z,26.45
2022-08-26T15:00:57.242Z,26.75
2022-08-26T15:03:25.251Z,27.46
2022-08-26T15:05:53.725Z,27.57
2022-08-26T15:08:26.400Z,27.82
2022-08-26T15:10:54.567Z,28.26
2022-08-26T15:13:22.360Z,28.73
2022-08-26T15:15:50.296Z,28.99
2022-08-26T15:18:19.922Z,29.20
2022-08-26T15:20:47.800Z,29.28
2022-08-26T15:23:16.390Z,29.12
2022-08-26T15:25:46.270Z,29.53
2022-08-26T15:28:14.800Z,30.20
2022-08-26T15:30:43.416Z,30.25
2022-08-26T15:33:14.870Z,30.44
2022-08-26T15:35:44.753Z,30.52
2022-08-26T15:38:12.947Z,30.45
2022-08-26T15:40:41.163Z,31.04
2022-08-26T15:43:25.662Z,30.87
2022-08-26T15:45:56.581Z,30.79
2022-08-26T15:48:26.219Z,29.81
2022-08-26T15:50:57.167Z,29.62
2022-08-26T15:53:25.318Z,30.05
2022-08-26T15:55:56.304Z,29.98
2022-08-26T15:58:26.993Z,29.67
2022-08-26T16:00:55.694Z,29.34
2022-08-26T16:03:23.774Z,29.34
2022-08-26T16:05:51.864Z,30.06
2022-08-26T16:08:22.676Z,29.91
2022-08-26T16:10:51.373Z,30.30
2022-08-26T16:13:20.317Z,30.69
2022-08-26T16:15:49.118Z,31.32
2022-08-26T16:18:17.782Z,31.17
2022-08-26T16:21:02.845Z,31.63
2022-08-26T16:23:43.258Z,31.37
2022-08-26T16:26:16.116Z,31.37
2022-08-26T16:28:44.584Z,32.09
2022-08-26T16:31:13.340Z,32.12
2022-08-26T16:33:41.876Z,32.08
2022-08-26T16:36:10.632Z,32.50
2022-08-26T16:38:40.016Z,33.00
2022-08-26T16:41:09.735Z,32.95
2022-08-26T16:43:37.788Z,33.08
2022-08-26T16:46:07.781Z,34.13
2022-08-26T16:48:38.048Z,34.30
2022-08-26T16:51:06.523Z,34.72
2022-08-26T16:53:34.853Z,35.16
2022-08-26T16:56:03.493Z,35.42
2022-08-26T16:58:33.128Z,36.02
2022-08-26T17:01:01.532Z,35.82
2022-08-26T17:03:29.607Z,37.36
2022-08-26T17:05:57.489Z,37.83
2022-08-26T17:08:28.676Z,37.78
2022-08-26T17:10:57.431Z,38.46
2022-08-26T17:13:35.675Z,38.58
2022-08-26T17:16:07.701Z,38.48
2022-08-26T17:18:36.367Z,38.43
2022-08-26T17:21:06.250Z,39.02
2022-08-26T17:23:34.709Z,39.38
2022-08-26T17:26:02.840Z,39.80
2022-08-26T17:28:32.200Z,40.62
2022-08-26T17:31:02.231Z,40.76
2022-08-26T17:33:31.830Z,41.42
2022-08-26T17:36:00.331Z,41.58
2022-08-26T17:38:29.343Z,41.65
2022-08-26T17:40:57.639Z,41.19
2022-08-26T17:43:26.985Z,41.39
2022-08-26T17:46:00.061Z,40.90
2022-08-26T17:48:36.969Z,40.67
2022-08-26T17:51:08.634Z,40.74
2022-08-26T17:53:37.366Z,40.55
2022-08-26T17:56:08.211Z,40.14
2022-08-26T17:58:37.072Z,39.50
2022-08-26T18:01:06.057Z,39.65
2022-08-26T18:03:34.122Z,39.10
2022-08-26T18:06:04.091Z,38.95
2022-08-26T18:08:31.790Z,39.21
2022-08-26T18:11:03.488Z,39.10
2022-08-26T18:13:31.821Z,39.15
2022-08-26T18:16:00.048Z,39.13
2022-08-26T18:18:28.163Z,38.96
2022-08-26T18:21:01.557Z,39.12
2022-08-26T18:23:34.014Z,39.17
2022-08-26T18:26:02.137Z,39.00
2022-08-26T18:28:30.215Z,39.09
2022-08-26T18:31:01.268Z,39.23
2022-08-26T18:33:29.645Z,39.18
2022-08-26T18:35:57.927Z,39.36
2022-08-26T18:38:28.359Z,39.75
2022-08-26T18:40:58.068Z,39.79
2022-08-26T18:43:26.638Z,39.54
2022-08-26T18:46:03.491Z,39.80
2022-08-26T18:48:36.743Z,39.49
2022-08-26T18:51:20.978Z,39.62
2022-08-26T18:53:50.106Z,40.00
2022-08-26T18:56:28.452Z,40.19
2022-08-26T19:01:44.086Z,40.05
2022-08-26T19:04:14.107Z,40.21
2022-08-26T19:06:47.605Z,40.19
2022-08-26T19:09:17.975Z,40.25
2022-08-26T19:11:49.855Z,40.52
2022-08-26T19:14:19.407Z,40.96
2022-08-26T19:16:49.663Z,40.90
2022-08-26T19:19:18.823Z,40.86
2022-08-26T19:21:47.233Z,41.10
2022-08-26T19:24:17.719Z,40.83
2022-08-26T19:26:50.389Z,41.49
2022-08-26T19:29:27.468Z,42.58
2022-08-26T19:31:55.599Z,43.62
2022-08-26T19:34:23.799Z,44.94
2022-08-26T19:36:53.263Z,45.08
2022-08-26T19:39:21.838Z,47.31
2022-08-26T19:41:51.791Z,49.39
2022-08-26T19:44:35.959Z,50.09
2022-08-26T19:47:04.677Z,50.32
2022-08-26T19:49:33.331Z,51.04
2022-08-26T19:52:02.944Z,51.65
2022-08-26T19:54:30.970Z,51.79
2022-08-26T19:57:00.476Z,52.67
2022-08-26T19:59:29.095Z,52.84
2022-08-26T20:02:00.641Z,52.93
2022-08-26T20:04:29.789Z,53.56
2022-08-26T20:06:57.782Z,54.11
2022-08-26T20:09:28.738Z,54.13
2022-08-26T20:11:57.090Z,54.45
2022-08-26T20:14:27.234Z,54.45
2022-08-26T20:16:55.590Z,55.17
2022-08-26T20:19:40.927Z,55.18
2022-08-26T20:22:09.569Z,55.17
2022-08-26T20:24:37.639Z,55.38
2022-08-26T20:27:08.087Z,55.70
2022-08-26T20:29:38.128Z,56.20
2022-08-26T20:32:08.699Z,56.39
2022-08-26T20:34:41.507Z,57.65
2022-08-26T20:37:09.839Z,57.74
2022-08-26T20:39:44.415Z,58.04
2022-08-26T20:42:20.231Z,58.14
2022-08-26T20:44:54.742Z,58.89
2022-08-26T20:47:23.361Z,58.50
2022-08-26T20:49:52.550Z,59.00
2022-08-26T20:52:20.942Z,59.13
2022-08-26T20:54:49.285Z,59.45
2022-08-26T20:57:17.488Z,58.90
2022-08-26T20:59:45.355Z,59.17
2022-08-26T21:02:14.736Z,58.43
2022-08-26T21:04:42.653Z,58.59
2022-08-26T21:07:10.746Z,58.30
2022-08-26T21:09:38.703Z,58.16
2022-08-26T21:12:07.034Z,58.43
2022-08-26T21:14:34.935Z,58.52
2022-08-26T21:17:03.359Z,59.06
2022-08-26T21:19:32.920Z,60.53
2022-08-26T21:22:00.755Z,60.46
2022-08-26T21:24:29.043Z,60.68
2022-08-26T21:26:57.119Z,61.34
2022-08-26T21:29:25.271Z,61.69
2022-08-26T21:31:53.283Z,62.02
2022-08-26T21:34:22.072Z,62.68
2022-08-26T21:36:52.165Z,61.84
2022-08-26T21:39:20.406Z,62.34
2022-08-26T21:41:48.412Z,63.30
2022-08-26T21:44:17.988Z,62.71
2022-08-26T21:46:47.012Z,62.24
2022-08-26T21:49:16.886Z,61.85
2022-08-26T21:51:46.738Z,62.05
2022-08-26T21:54:18.079Z,62.01
2022-08-26T21:56:47.283Z,62.08
2022-08-26T21:59:17.953Z,61.96
2022-08-26T22:01:46.522Z,61.86
2022-08-26T22:04:15.314Z,62.50
2022-08-26T22:06:45.050Z,62.57
2022-08-26T22:09:14.512Z,62.13
2022-08-26T22:11:44.643Z,62.46
2022-08-26T22:14:12.838Z,62.31
2022-08-26T22:16:41.426Z,62.43
2022-08-26T22:19:18.264Z,63.00
2022-08-26T22:21:46.699Z,62.70
2022-08-26T22:24:14.564Z,62.62
2022-08-26T22:26:44.271Z,62.15
2022-08-26T22:29:12.693Z,62.36
2022-08-26T22:31:40.635Z,63.98
2022-08-26T22:34:10.504Z,64.05
2022-08-26T22:36:43.792Z,63.94
2022-08-26T22:39:13.206Z,64.18
2022-08-26T22:41:42.150Z,63.92
2022-08-26T22:44:12.557Z,63.84
2022-08-26T22:46:41.745Z,63.70
2022-08-26T22:49:10.650Z,64.99
2022-08-26T22:51:38.745Z,64.73
2022-08-26T22:54:07.898Z,64.36
2022-08-26T22:56:36.341Z,63.90
2022-08-26T22:59:04.647Z,64.75
2022-08-26T23:02:06.805Z,64.47
2022-08-26T23:04:36.322Z,64.56
2022-08-26T23:07:04.798Z,63.77
2022-08-26T23:09:33.794Z,63.63
2022-08-26T23:12:01.930Z,63.86
2022-08-26T23:14:34.121Z,64.25
2022-08-26T23:17:04.057Z,64.66
2022-08-26T23:19:32.448Z,66.05
2022-08-26T23:22:00.662Z,65.78
2022-08-26T23:24:29.110Z,65.72
2022-08-26T23:26:57.310Z,65.71
2022-08-26T23:29:25.993Z,65.82
2022-08-26T23:31:56.136Z,66.39
2022-08-26T23:34:43.001Z,66.57
2022-08-26T23:37:11.743Z,66.83
2022-08-26T23:39:40.158Z,66.75
2022-08-26T23:42:09.191Z,66.04
2022-08-26T23:44:37.447Z,65.82
2022-08-26T23:47:06.437Z,65.93
2022-08-26T23:49:36.842Z,66.14
2022-08-26T23:52:23.277Z,66.35
2022-08-26T23:54:52.503Z,65.74
2022-08-26T23:57:22.546Z,66.12
2022-08-26T23:59:50.889Z,67.34
